Austin, Texas
Traffic Map
Current Weather Conditions
Austin, Texas
Clear
Clear

Feels Like: 7°
Wind Chill: Ceiling: Unl
Heat Index: Visibility: 10mi
Dew Point: Wind: 3mph
Humidity: 68% Direction: 200° (SSW)
Pressure: 30.15in Gusts: 0mph
Raw Report DataKATT 160651Z AUTO 20003KT 10SM CLR 07/01 A3015 RMK AO2 SLP210 T00670011
Traffic Incident Summary
Active as of:
Severity:
Category:
InformationThere was an issue retrieving the traffic information for this location. Please try a different location or try again shortly.
Advertisements
At Last! Intellicast now available for iPhone and Android